Edenville, Michigan
Current Conditions -  °F | °C
As of 4:52 PM on Friday 31 Oct 2014 (Local Time) from KIKW Reporting Station
Overcast Overcast  
Wind Chill: -3°   Ceiling: 2700
Heat Index:   Visibility: 10mi
Dew Point: -2°   Wind: 16mph
Humidity: 73%   Direction: 350°N
Pressure: 30.11"   Gusts: 29mph
Location:  43.8°N, 84.38°W
Report Text: KIKW 312052Z AUTO 35014G25KT 10SM OVC027 02/M02 A3011 RMK AO2 T00211022
Loading
Personal Weather Stations






























Interactive Weather Map
Tropical Storm Tracking
New forecast layout! Learn more

10-Day Weather Forecast

Advertisements
Track Severe Weather on mobile